Time;durP1;ratioP1;P1;durP2;ratioP2;P2;SDS_P1;SDS_P2;PMS_P1;PMS_P2;Temp;Humidity;BMP_temperature;BMP_pressure;BME280_temperature;BME280_humidity;BME280_pressure;Samples;Min_cycle;Max_cycle;Signal;HPM_P1;HPM_P2
2022/01/02 00:00:10;;;;;;;8.80;5.53;;;;;;;3.51;100.00;96502.94;1018599;29;20114;-73
2022/01/02 00:00:42;;;;;;;7.82;5.28;;;;;;;3.52;100.00;96507.94;1023795;28;20270;-73
2022/01/02 00:01:12;;;;;;;8.80;5.72;;;;;;;3.53;100.00;96493.97;1018349;29;20402;-72
2022/01/02 00:01:43;;;;;;;9.07;5.60;;;;;;;3.54;100.00;96505.94;1013055;29;20375;-73
2022/01/02 00:02:14;;;;;;;9.02;5.90;;;;;;;3.52;100.00;96502.75;1014397;29;20108;-74
2022/01/02 00:03:08;;;;;;;8.65;5.63;;;;;;;3.58;100.00;96501.16;1014237;29;20252;-72
2022/01/02 00:03:39;;;;;;;8.13;5.18;;;;;;;3.60;100.00;96504.34;1017603;29;20028;-72
2022/01/02 00:04:16;;;;;;;8.55;5.65;;;;;;;3.66;100.00;96497.56;1013423;29;20323;-73
2022/01/02 00:04:48;;;;;;;8.60;5.35;;;;;;;3.67;100.00;96505.16;1010128;29;20269;-71
2022/01/02 00:05:20;;;;;;;7.80;5.13;;;;;;;3.71;100.00;96500.34;1014278;29;21035;-73
2022/01/02 00:05:52;;;;;;;8.05;5.13;;;;;;;3.70;100.00;96499.56;1018347;28;20275;-71
2022/01/02 00:06:23;;;;;;;8.50;5.38;;;;;;;3.61;100.00;96490.38;1021937;29;20258;-72
2022/01/02 00:06:54;;;;;;;7.90;5.63;;;;;;;3.65;100.00;96496.75;1022361;29;20354;-71
2022/01/02 00:07:25;;;;;;;10.02;4.93;;;;;;;3.70;100.00;96498.75;1018317;29;20805;-75
2022/01/02 00:08:09;;;;;;;8.05;5.18;;;;;;;3.68;100.00;96491.16;1015317;29;20296;-72
2022/01/02 00:08:41;;;;;;;7.18;4.60;;;;;;;3.68;100.00;96490.38;1010344;29;20608;-72
2022/01/02 00:09:17;;;;;;;7.88;5.07;;;;;;;3.74;100.00;96489.56;1014597;29;20272;-74
2022/01/02 00:09:50;;;;;;;6.20;4.57;;;;;;;3.70;100.00;96485.78;1021730;29;20303;-71
2022/01/02 00:10:21;;;;;;;8.10;5.35;;;;;;;3.72;100.00;96492.38;1021778;29;20390;-73
2022/01/02 00:10:52;;;;;;;7.55;5.05;;;;;;;3.75;100.00;96485.97;1014517;29;21255;-73
2022/01/02 00:11:23;;;;;;;10.45;5.00;;;;;;;3.78;100.00;96493.34;1014314;29;20040;-73
2022/01/02 00:11:56;;;;;;;7.72;5.13;;;;;;;3.80;100.00;96493.16;1018561;29;20307;-73
2022/01/02 00:12:26;;;;;;;6.93;4.97;;;;;;;3.76;100.00;96487.59;1018381;29;20317;-71
2022/01/02 00:12:58;;;;;;;9.23;4.72;;;;;;;3.69;100.00;96478.97;1017070;29;20268;-74
2022/01/02 00:13:33;;;;;;;9.57;4.90;;;;;;;3.75;100.00;96478.97;1018373;29;20083;-73
2022/01/02 00:14:08;;;;;;;8.55;5.18;;;;;;;3.73;100.00;96482.78;1014674;29;20691;-71
2022/01/02 00:14:42;;;;;;;8.40;5.28;;;;;;;3.76;100.00;96472.81;1021815;28;20298;-71
2022/01/02 00:15:13;;;;;;;7.82;5.22;;;;;;;3.74;100.00;96479.19;1018585;29;20706;-72
2022/01/02 00:15:43;;;;;;;8.45;5.65;;;;;;;3.77;100.00;96484.78;1010380;29;20261;-72
2022/01/02 00:16:17;;;;;;;10.38;5.38;;;;;;;3.67;100.00;96470.63;1011374;29;20058;-73
2022/01/02 00:16:50;;;;;;;7.40;5.47;;;;;;;3.77;100.00;96486.59;1018207;29;20030;-72
2022/01/02 00:17:23;;;;;;;7.68;5.15;;;;;;;3.76;100.00;96477.22;1018365;29;20781;-73
2022/01/02 00:17:57;;;;;;;6.95;4.68;;;;;;;3.82;100.00;96480.78;1018082;29;20722;-72
2022/01/02 00:18:28;;;;;;;7.93;5.18;;;;;;;3.79;100.00;96482.00;1015587;29;20278;-72
2022/01/02 00:19:06;;;;;;;9.77;5.00;;;;;;;3.74;100.00;96476.59;1018123;29;20266;-72
2022/01/02 00:19:40;;;;;;;7.88;5.22;;;;;;;3.71;100.00;96477.00;1017949;28;20103;-71
2022/01/02 00:20:13;;;;;;;7.85;5.20;;;;;;;3.80;100.00;96483.59;1021559;29;20736;-72
2022/01/02 00:20:48;;;;;;;8.13;5.43;;;;;;;3.75;100.00;96475.59;1014356;29;20255;-72
2022/01/02 00:21:21;;;;;;;8.57;5.43;;;;;;;3.77;100.00;96478.78;1017838;29;20302;-72
2022/01/02 00:21:53;;;;;;;7.00;4.90;;;;;;;3.72;100.00;96476.81;1018434;29;20370;-73
2022/01/02 00:22:31;;;;;;;7.35;4.88;;;;;;;3.64;100.00;96469.22;1014526;29;20263;-70
2022/01/02 00:23:07;;;;;;;9.38;5.25;;;;;;;3.64;100.00;96471.00;1022056;28;20294;-72
2022/01/02 00:24:21;;;;;;;8.25;4.88;;;;;;;3.66;100.00;96482.78;1018270;29;20267;-71
2022/01/02 00:24:31;;;;;;;7.55;4.30;;;;;;;3.71;100.00;96474.41;1016461;29;20894;-71
2022/01/02 00:25:06;;;;;;;6.95;4.65;;;;;;;3.73;100.00;96477.59;1010193;29;20277;-72
2022/01/02 00:25:40;;;;;;;7.03;4.97;;;;;;;3.66;100.00;96466.44;1014412;29;20445;-72
2022/01/02 00:26:16;;;;;;;8.57;5.05;;;;;;;3.67;100.00;96473.22;1014494;29;20264;-72
2022/01/02 00:26:48;;;;;;;7.95;5.10;;;;;;;3.65;100.00;96470.78;1018230;29;20287;-72
2022/01/02 00:27:19;;;;;;;7.20;4.85;;;;;;;3.72;100.00;96484.59;1022252;29;20259;-72
2022/01/02 00:27:49;;;;;;;8.00;5.40;;;;;;;3.71;100.00;96485.56;1018043;29;20698;-71
2022/01/02 00:28:20;;;;;;;8.45;4.88;;;;;;;3.66;100.00;96461.25;1022155;28;20442;-73
2022/01/02 00:28:50;;;;;;;8.35;5.05;;;;;;;3.63;100.00;96472.81;1014355;29;20016;-73
2022/01/02 00:29:21;;;;;;;8.10;4.97;;;;;;;3.53;100.00;96452.47;1017273;28;20016;-71
2022/01/02 00:29:51;;;;;;;7.18;5.20;;;;;;;3.64;100.00;96482.19;1025426;28;20151;-72
2022/01/02 00:30:22;;;;;;;7.55;5.07;;;;;;;3.68;100.00;96485.19;1017719;28;20016;-71
2022/01/02 00:30:52;;;;;;;7.18;4.80;;;;;;;3.61;100.00;96474.00;1018031;28;20530;-72
2022/01/02 00:31:22;;;;;;;6.97;4.80;;;;;;;3.67;100.00;96481.00;1022004;28;20023;-72
2022/01/02 00:31:53;;;;;;;8.45;4.95;;;;;;;3.53;100.00;96462.84;1014464;29;20016;-71
2022/01/02 00:32:24;;;;;;;8.30;4.75;;;;;;;3.61;100.00;96480.00;1018347;29;20023;-71
2022/01/02 00:32:54;;;;;;;8.23;4.65;;;;;;;3.55;100.00;96470.41;1020505;29;20034;-71
2022/01/02 00:33:25;;;;;;;7.18;4.57;;;;;;;3.56;100.00;96471.22;1013993;29;20025;-71
2022/01/02 00:33:55;;;;;;;8.52;4.57;;;;;;;3.60;100.00;96485.38;1010302;29;20108;-73
2022/01/02 00:34:26;;;;;;;7.85;4.82;;;;;;;3.59;100.00;96486.38;1013369;29;20024;-71
2022/01/02 00:34:56;;;;;;;9.40;4.90;;;;;;;3.54;100.00;96480.00;1018188;29;20019;-73
2022/01/02 00:35:27;;;;;;;7.72;4.53;;;;;;;3.57;100.00;96480.59;1018250;29;20023;-72
2022/01/02 00:35:57;;;;;;;7.93;4.68;;;;;;;3.58;100.00;96479.59;1022179;29;20018;-74
2022/01/02 00:36:28;;;;;;;7.53;5.03;;;;;;;3.55;100.00;96485.97;1018094;29;20031;-71
2022/01/02 00:36:58;;;;;;;7.45;4.78;;;;;;;3.58;100.00;96482.19;1022036;29;20127;-71
2022/01/02 00:37:29;;;;;;;9.00;5.22;;;;;;;3.60;100.00;96475.81;1022108;29;20023;-71
2022/01/02 00:37:59;;;;;;;8.55;5.45;;;;;;;3.49;100.00;96474.63;1022043;28;20164;-73
2022/01/02 00:38:29;;;;;;;10.10;5.50;;;;;;;3.42;100.00;96466.03;1014131;29;20117;-75
2022/01/02 00:39:00;;;;;;;9.23;5.05;;;;;;;3.49;100.00;96477.22;1016596;29;20028;-71
2022/01/02 00:39:30;;;;;;;8.95;5.32;;;;;;;3.46;100.00;96472.41;1022279;29;20034;-72
2022/01/02 00:40:02;;;;;;;9.55;4.88;;;;;;;3.53;100.00;96473.22;1024726;28;20031;-75
2022/01/02 00:40:34;;;;;;;8.95;5.78;;;;;;;3.49;100.00;96476.41;1017523;29;20019;-71
2022/01/02 00:41:04;;;;;;;8.27;5.10;;;;;;;3.54;100.00;96468.81;1022397;29;20254;-70
2022/01/02 00:41:43;;;;;;;6.40;4.55;;;;;;;3.62;100.00;96480.78;1018145;28;20263;-73
2022/01/02 00:42:40;;;;;;;7.25;4.70;;;;;;;3.66;100.00;96479.41;1018278;29;20669;-72
2022/01/02 00:43:18;;;;;;;8.55;4.90;;;;;;;3.67;100.00;96474.00;1019004;29;20294;-72
2022/01/02 00:43:59;;;;;;;9.35;5.30;;;;;;;3.61;100.00;96484.38;1021775;28;20342;-72
2022/01/02 00:44:54;;;;;;;7.13;4.65;;;;;;;3.47;100.00;96466.22;1026401;28;20345;-72
2022/01/02 00:45:27;;;;;;;7.55;4.70;;;;;;;3.53;100.00;96480.19;1014417;29;20028;-72
2022/01/02 00:45:59;;;;;;;8.75;4.85;;;;;;;3.47;100.00;96478.41;1013987;29;20272;-70
2022/01/02 00:46:31;;;;;;;8.80;5.00;;;;;;;3.42;100.00;96470.41;1014393;29;20264;-72
2022/01/02 00:47:15;;;;;;;6.70;4.80;;;;;;;3.50;100.00;96478.00;1014398;29;20268;-71
2022/01/02 00:47:54;;;;;;;9.63;5.30;;;;;;;3.49;100.00;96482.41;1018428;29;20267;-73
2022/01/02 00:48:28;;;;;;;7.20;4.90;;;;;;;3.44;100.00;96464.03;1022657;29;20799;-73
2022/01/02 00:49:02;;;;;;;7.30;5.05;;;;;;;3.46;100.00;96475.00;1011720;29;20269;-74
2022/01/02 00:49:33;;;;;;;6.60;4.63;;;;;;;3.41;100.00;96474.78;1014512;29;20303;-73
2022/01/02 00:50:14;;;;;;;6.47;4.25;;;;;;;3.38;100.00;96470.00;1021464;28;20776;-73
2022/01/02 00:50:51;;;;;;;6.90;4.57;;;;;;;3.43;100.00;96466.81;1021084;28;20271;-72
2022/01/02 00:51:47;;;;;;;5.82;4.43;;;;;;;3.44;100.00;96464.03;1026307;28;20023;-74
2022/01/02 00:52:18;;;;;;;7.82;4.50;;;;;;;3.41;100.00;96471.41;1029480;28;20360;-73
2022/01/02 00:52:49;;;;;;;7.05;4.43;;;;;;;3.39;100.00;96465.63;1018130;29;20278;-73
2022/01/02 00:53:20;;;;;;;6.90;4.30;;;;;;;3.43;100.00;96465.03;1014569;29;20513;-73
2022/01/02 00:53:50;;;;;;;7.78;4.30;;;;;;;3.40;100.00;96460.22;1014554;29;20288;-72
2022/01/02 00:54:23;;;;;;;5.75;4.50;;;;;;;3.47;100.00;96463.63;1017852;29;20123;-71
2022/01/02 00:54:55;;;;;;;7.70;4.13;;;;;;;3.43;100.00;96461.63;1018467;29;20032;-72
2022/01/02 00:55:25;;;;;;;7.15;4.90;;;;;;;3.38;100.00;96464.81;1018410;29;20631;-72
2022/01/02 00:55:56;;;;;;;5.57;4.15;;;;;;;3.40;100.00;96472.41;1018632;29;20640;-73
2022/01/02 00:56:28;;;;;;;7.28;4.88;;;;;;;3.37;100.00;96458.03;1018562;29;20676;-72
2022/01/02 00:57:04;;;;;;;6.88;4.22;;;;;;;3.38;100.00;96461.41;1014738;29;20096;-73
2022/01/02 00:57:36;;;;;;;5.95;4.45;;;;;;;3.43;100.00;96462.44;1014262;29;20268;-74
2022/01/02 00:58:11;;;;;;;7.90;4.50;;;;;;;3.35;100.00;96454.84;1018222;29;20291;-74
2022/01/02 00:58:51;;;;;;;7.80;4.45;;;;;;;3.43;100.00;96464.22;1019817;29;20255;-71
2022/01/02 00:59:29;;;;;;;6.63;4.70;;;;;;;3.40;100.00;96464.63;1018004;29;20350;-72
2022/01/02 01:00:11;;;;;;;8.98;4.68;;;;;;;3.38;100.00;96461.41;1025946;28;20659;-73
2022/01/02 01:00:48;;;;;;;6.78;4.13;;;;;;;3.45;100.00;96460.41;1014107;29;20252;-74
2022/01/02 01:01:29;;;;;;;7.93;4.35;;;;;;;3.41;100.00;96464.41;1014512;29;20257;-72
2022/01/02 01:02:03;;;;;;;6.60;4.35;;;;;;;3.37;100.00;96458.03;1018257;29;20319;-73
2022/01/02 01:02:35;;;;;;;6.90;4.40;;;;;;;3.36;100.00;96460.84;1019161;29;20485;-72
2022/01/02 01:03:07;;;;;;;6.53;4.90;;;;;;;3.34;100.00;96463.63;1018121;29;20556;-71
2022/01/02 01:03:39;;;;;;;7.97;4.88;;;;;;;3.34;100.00;96458.44;1025822;28;20677;-75
2022/01/02 01:04:10;;;;;;;7.05;4.57;;;;;;;3.33;100.00;96456.06;1017059;29;20272;-72
2022/01/02 01:04:40;;;;;;;6.00;4.18;;;;;;;3.38;100.00;96449.25;1021585;28;20788;-73
2022/01/02 01:05:12;;;;;;;6.13;4.20;;;;;;;3.47;100.00;96455.84;1017855;29;20340;-73
2022/01/02 01:05:42;;;;;;;5.53;3.92;;;;;;;3.49;100.00;96451.25;1017446;29;20031;-72
2022/01/02 01:06:13;;;;;;;7.20;4.40;;;;;;;3.58;100.00;96464.03;1017735;29;20263;-71
2022/01/02 01:06:44;;;;;;;5.15;3.80;;;;;;;3.62;100.00;96458.25;1020986;29;20031;-71
2022/01/02 01:07:14;;;;;;;5.95;4.10;;;;;;;3.51;100.00;96441.47;1014341;29;20028;-72
2022/01/02 01:07:47;;;;;;;6.38;4.07;;;;;;;3.51;100.00;96444.06;1018894;28;20478;-71
2022/01/02 01:08:17;;;;;;;5.95;3.88;;;;;;;3.54;100.00;96443.66;1021995;29;20023;-72
2022/01/02 01:08:48;;;;;;;5.97;4.25;;;;;;;3.59;100.00;96455.22;1027133;28;20820;-72
2022/01/02 01:09:18;;;;;;;6.18;4.00;;;;;;;3.58;100.00;96453.66;1021751;28;20030;-73
2022/01/02 01:09:48;;;;;;;5.40;3.83;;;;;;;3.70;100.00;96457.25;1021656;29;20074;-70
2022/01/02 01:10:20;;;;;;;7.28;4.18;;;;;;;3.74;100.00;96451.44;1021548;29;20234;-69
2022/01/02 01:10:50;;;;;;;7.53;3.70;;;;;;;3.73;100.00;96446.47;1021838;29;20029;-73
2022/01/02 01:11:21;;;;;;;6.13;4.25;;;;;;;3.69;100.00;96450.44;1011806;29;21026;-71
2022/01/02 01:11:51;;;;;;;6.63;4.32;;;;;;;3.70;100.00;96454.66;1018122;29;20060;-72
2022/01/02 01:12:22;;;;;;;5.28;3.90;;;;;;;3.70;100.00;96449.47;1018272;29;20418;-71
2022/01/02 01:12:55;;;;;;;5.97;4.20;;;;;;;3.74;100.00;96455.84;1023794;28;20051;-72
2022/01/02 01:13:26;;;;;;;6.22;3.60;;;;;;;3.76;100.00;96451.25;1022446;28;20279;-72
2022/01/02 01:13:57;;;;;;;6.35;4.20;;;;;;;3.71;100.00;96451.03;1011473;29;20281;-73
2022/01/02 01:14:28;;;;;;;7.95;4.18;;;;;;;3.70;100.00;96450.25;1017591;29;20027;-73
2022/01/02 01:15:00;;;;;;;5.13;3.97;;;;;;;3.72;100.00;96453.44;1014959;29;20300;-73
2022/01/02 01:15:31;;;;;;;6.28;4.20;;;;;;;3.68;100.00;96444.44;1014604;29;20080;-71
2022/01/02 01:16:02;;;;;;;5.75;3.85;;;;;;;3.70;100.00;96439.06;1013706;29;20841;-71
2022/01/02 01:16:32;;;;;;;7.40;4.32;;;;;;;3.76;100.00;96457.22;1021843;28;20370;-72
2022/01/02 01:17:03;;;;;;;12.93;4.35;;;;;;;3.70;100.00;96446.84;1014059;29;20031;-73
2022/01/02 01:17:36;;;;;;;6.57;4.35;;;;;;;3.73;100.00;96460.22;1014117;29;20024;-71
2022/01/02 01:18:06;;;;;;;6.40;3.97;;;;;;;3.64;100.00;96447.66;1013890;29;20031;-72
2022/01/02 01:18:37;;;;;;;6.43;4.07;;;;;;;3.68;100.00;96448.84;1014119;29;20268;-71
2022/01/02 01:19:07;;;;;;;5.95;3.80;;;;;;;3.66;100.00;96459.44;1017623;29;20639;-71
2022/01/02 01:19:38;;;;;;;5.95;4.13;;;;;;;3.66;100.00;96456.06;1017615;29;20027;-74
2022/01/02 01:20:12;;;;;;;7.53;4.65;;;;;;;3.57;100.00;96454.66;1017527;29;20023;-73
2022/01/02 01:20:43;;;;;;;6.35;3.97;;;;;;;3.62;100.00;96454.84;1022073;29;20028;-73
2022/01/02 01:21:14;;;;;;;5.63;4.00;;;;;;;3.58;100.00;96453.66;1017607;29;20769;-73
2022/01/02 01:21:44;;;;;;;5.15;3.90;;;;;;;3.58;100.00;96458.84;1014112;29;20276;-72
2022/01/02 01:22:15;;;;;;;6.03;4.47;;;;;;;3.52;100.00;96450.88;1022126;29;20015;-72
2022/01/02 01:22:46;;;;;;;8.18;4.60;;;;;;;3.52;100.00;96450.88;1022020;29;20031;-71
2022/01/02 01:23:17;;;;;;;7.10;4.32;;;;;;;3.46;100.00;96441.28;1021240;28;20027;-71
2022/01/02 01:23:47;;;;;;;6.07;4.30;;;;;;;3.51;100.00;96453.66;1025813;28;20712;-71
2022/01/02 01:24:18;;;;;;;5.45;4.07;;;;;;;3.45;100.00;96434.47;1022745;28;20259;-71
2022/01/02 01:24:49;;;;;;;6.50;4.00;;;;;;;3.59;100.00;96453.47;1020786;28;20023;-71
2022/01/02 01:25:20;;;;;;;8.07;4.32;;;;;;;3.69;100.00;96453.03;1025991;28;20432;-73
2022/01/02 01:25:50;;;;;;;6.55;3.88;;;;;;;3.61;100.00;96442.88;1017907;29;20078;-72
2022/01/02 01:26:21;;;;;;;5.38;3.70;;;;;;;3.64;100.00;96447.66;1021910;28;20263;-71
2022/01/02 01:26:53;;;;;;;5.20;4.03;;;;;;;3.62;100.00;96449.66;1020187;28;20425;-71
2022/01/02 01:27:24;;;;;;;6.78;3.85;;;;;;;3.58;100.00;96438.06;1017379;29;20032;-73
2022/01/02 01:27:55;;;;;;;6.47;4.20;;;;;;;3.66;100.00;96446.47;1017700;29;20312;-71
2022/01/02 01:28:26;;;;;;;8.60;4.80;;;;;;;3.63;100.00;96451.25;1017791;29;20023;-73
2022/01/02 01:28:56;;;;;;;5.93;4.38;;;;;;;3.68;100.00;96449.63;1018268;29;21087;-73
2022/01/02 01:29:27;;;;;;;6.10;4.25;;;;;;;3.62;100.00;96434.91;1021942;29;20529;-71
2022/01/02 01:29:58;;;;;;;5.78;3.75;;;;;;;3.69;100.00;96446.06;1017460;29;20024;-73
2022/01/02 01:30:28;;;;;;;5.80;3.92;;;;;;;3.65;100.00;96444.84;1013575;29;20076;-71
2022/01/02 01:30:59;;;;;;;5.20;4.32;;;;;;;3.66;100.00;96445.66;1014104;29;20052;-72
2022/01/02 01:31:29;;;;;;;8.43;4.35;;;;;;;3.69;100.00;96450.44;1017942;29;20671;-70
2022/01/02 01:32:03;;;;;;;6.18;4.18;;;;;;;3.70;100.00;96452.06;1013511;29;20059;-72
2022/01/02 01:32:34;;;;;;;8.35;4.38;;;;;;;3.68;100.00;96449.63;1015600;29;20462;-71
2022/01/02 01:33:05;;;;;;;7.57;4.78;;;;;;;3.66;100.00;96451.66;1013939;29;20264;-71
2022/01/02 01:33:35;;;;;;;6.90;4.50;;;;;;;3.59;100.00;96439.66;1021956;29;20019;-72
2022/01/02 01:34:05;;;;;;;6.13;3.67;;;;;;;3.62;100.00;96444.44;1009640;29;20256;-73
2022/01/02 01:34:36;;;;;;;7.15;3.92;;;;;;;3.60;100.00;96449.06;1014013;29;20020;-71
2022/01/02 01:35:07;;;;;;;6.30;4.20;;;;;;;3.54;100.00;96448.84;1014103;29;20894;-72
2022/01/02 01:35:38;;;;;;;7.05;4.35;;;;;;;3.46;100.00;96441.28;1013643;29;20106;-71
2022/01/02 01:36:09;;;;;;;6.63;4.38;;;;;;;3.44;100.00;96440.69;1013912;29;20034;-72
2022/01/02 01:36:42;;;;;;;7.18;4.45;;;;;;;3.45;100.00;96444.84;1017794;29;20633;-73
2022/01/02 01:37:12;;;;;;;6.32;4.32;;;;;;;3.44;100.00;96448.47;1021896;29;20018;-73
2022/01/02 01:37:43;;;;;;;6.35;4.40;;;;;;;3.42;100.00;96450.47;1022122;29;20606;-73
2022/01/02 01:38:13;;;;;;;7.15;4.40;;;;;;;3.44;100.00;96448.47;1021265;28;20042;-72
2022/01/02 01:38:44;;;;;;;6.85;4.72;;;;;;;3.42;100.00;96450.47;1021981;29;20035;-73
2022/01/02 01:39:17;;;;;;;6.38;4.28;;;;;;;3.25;100.00;96429.31;1017819;29;20633;-73
2022/01/02 01:39:48;;;;;;;6.72;4.32;;;;;;;3.33;100.00;96438.69;1010554;29;20021;-73
2022/01/02 01:40:18;;;;;;;5.85;4.15;;;;;;;3.29;100.00;96440.88;1009540;29;20265;-72
2022/01/02 01:41:29;;;;;;;8.60;4.70;;;;;;;3.31;100.00;96445.84;1018032;29;20027;-73
2022/01/02 01:42:07;;;;;;;7.28;4.70;;;;;;;3.30;100.00;96446.88;1015396;29;20279;-74
2022/01/02 01:42:54;;;;;;;6.45;4.05;;;;;;;3.31;100.00;96453.63;1019621;29;20433;-72
2022/01/02 01:43:37;;;;;;;5.85;4.03;;;;;;;3.28;100.00;96451.44;1025688;28;20265;-71
2022/01/02 01:44:51;;;;;;;5.65;4.15;;;;;;;3.36;100.00;96446.06;1022143;29;20293;-71
2022/01/02 01:45:52;;;;;;;6.88;4.50;;;;;;;3.27;100.00;96439.47;1017993;29;20252;-71
2022/01/02 01:46:23;;;;;;;5.35;3.83;;;;;;;3.32;100.00;96439.69;1019742;29;20156;-73
2022/01/02 01:46:55;;;;;;;6.72;4.35;;;;;;;3.35;100.00;96449.66;1019770;28;20462;-72
2022/01/02 01:47:26;;;;;;;6.15;4.25;;;;;;;3.34;100.00;96439.47;1022050;29;20024;-73
2022/01/02 01:48:01;;;;;;;6.40;4.20;;;;;;;3.22;100.00;96428.88;1021875;29;20259;-72
2022/01/02 01:48:32;;;;;;;8.13;4.65;;;;;;;3.34;100.00;96442.88;1022161;28;20127;-71
2022/01/02 01:49:15;;;;;;;7.30;4.25;;;;;;;3.29;100.00;96430.50;1025966;28;20294;-73
2022/01/02 01:49:46;;;;;;;8.13;4.75;;;;;;;3.33;100.00;96445.69;1017991;29;20030;-70
2022/01/02 01:50:17;;;;;;;6.68;3.97;;;;;;;3.22;100.00;96431.47;1013335;29;20291;-72
2022/01/02 01:50:47;;;;;;;6.22;4.30;;;;;;;3.34;100.00;96449.84;1012855;29;20639;-72
2022/01/02 01:51:17;;;;;;;6.45;4.50;;;;;;;3.30;100.00;96452.06;1013768;29;20537;-72
2022/01/02 01:51:48;;;;;;;5.78;4.43;;;;;;;3.19;100.00;96442.28;1015461;29;20081;-71
2022/01/02 01:52:19;;;;;;;7.15;4.20;;;;;;;3.28;100.00;96454.03;1017966;28;20364;-71
2022/01/02 01:52:49;;;;;;;6.45;4.10;;;;;;;3.17;100.00;96436.47;1019240;29;20077;-72
2022/01/02 01:53:19;;;;;;;7.35;4.63;;;;;;;3.17;100.00;96442.47;1014316;29;20023;-72
2022/01/02 01:53:50;;;;;;;6.95;4.78;;;;;;;3.16;100.00;96442.66;1014638;29;20020;-71
2022/01/02 01:54:21;;;;;;;7.07;4.18;;;;;;;3.17;100.00;96446.84;1010713;29;20021;-73
2022/01/02 01:54:51;;;;;;;7.45;4.57;;;;;;;3.17;100.00;96446.84;1013019;29;20398;-71
2022/01/02 01:55:22;;;;;;;6.43;4.20;;;;;;;3.16;100.00;96443.47;1012960;29;20387;-71
2022/01/02 01:55:55;;;;;;;5.90;4.43;;;;;;;3.13;100.00;96438.66;1015004;29;20055;-72
2022/01/02 01:56:25;;;;;;;7.05;4.10;;;;;;;3.08;100.00;96430.69;1015169;29;20020;-72
2022/01/02 01:56:56;;;;;;;7.30;4.55;;;;;;;3.06;100.00;96430.09;1010359;29;20265;-71
2022/01/02 01:57:26;;;;;;;7.38;4.65;;;;;;;3.06;100.00;96430.09;1014740;29;20498;-71
2022/01/02 01:57:59;;;;;;;7.20;4.28;;;;;;;3.06;100.00;96435.28;1014685;29;20064;-72
2022/01/02 01:58:30;;;;;;;6.50;3.90;;;;;;;3.00;100.00;96426.50;1019242;29;20032;-73
2022/01/02 01:59:00;;;;;;;5.20;4.05;;;;;;;3.04;100.00;96426.88;1011820;29;20273;-72
2022/01/02 01:59:31;;;;;;;7.38;4.07;;;;;;;2.99;100.00;96429.28;1015015;29;20388;-71
2022/01/02 02:00:09;;;;;;;6.40;4.05;;;;;;;3.00;100.00;96431.66;1014760;29;20513;-71
2022/01/02 02:00:40;;;;;;;9.88;4.57;;;;;;;2.98;100.00;96428.47;1018095;29;20526;-71
2022/01/02 02:01:10;;;;;;;7.97;4.07;;;;;;;2.94;100.00;96429.06;1019988;29;20279;-71
2022/01/02 02:01:41;;;;;;;6.07;4.25;;;;;;;2.81;100.00;96401.34;1019047;29;20696;-71
2022/01/02 02:02:11;;;;;;;7.65;4.40;;;;;;;3.03;100.00;96431.28;1010711;29;20036;-72
2022/01/02 02:02:42;;;;;;;6.05;4.40;;;;;;;2.91;100.00;96417.28;1015074;29;20028;-72
2022/01/02 02:03:12;;;;;;;7.85;4.65;;;;;;;2.97;100.00;96432.06;1014788;29;20605;-71
2022/01/02 02:03:43;;;;;;;7.20;4.43;;;;;;;2.98;100.00;96428.47;1014936;29;20308;-72
2022/01/02 02:04:13;;;;;;;6.90;4.28;;;;;;;2.98;100.00;96432.84;1014765;29;20024;-72
2022/01/02 02:04:44;;;;;;;6.72;3.90;;;;;;;2.93;100.00;96424.88;1015174;29;20028;-71
2022/01/02 02:05:14;;;;;;;7.85;4.90;;;;;;;2.98;100.00;96435.44;1015085;29;20020;-73
2022/01/02 02:05:45;;;;;;;6.53;4.60;;;;;;;2.96;100.00;96432.28;1018741;29;20016;-71
2022/01/02 02:06:16;;;;;;;7.28;4.40;;;;;;;2.91;100.00;96432.84;1022876;29;20029;-71
2022/01/02 02:06:47;;;;;;;6.78;4.13;;;;;;;2.82;100.00;96418.50;1023101;29;20031;-71
2022/01/02 02:07:19;;;;;;;9.70;4.55;;;;;;;2.80;100.00;96416.09;1014700;29;20032;-70
2022/01/02 02:07:50;;;;;;;8.38;4.30;;;;;;;2.87;100.00;96421.28;1022337;29;20027;-71
2022/01/02 02:08:25;;;;;;;7.97;4.20;;;;;;;2.87;100.00;96420.47;1023024;29;20255;-73
2022/01/02 02:08:57;;;;;;;6.75;4.50;;;;;;;2.85;100.00;96428.47;1022759;29;20489;-73
2022/01/02 02:09:34;;;;;;;7.03;4.43;;;;;;;2.90;100.00;96417.50;1019007;29;20934;-70
2022/01/02 02:10:12;;;;;;;6.20;4.22;;;;;;;2.77;100.00;96413.88;1018546;29;20319;-71
2022/01/02 02:10:46;;;;;;;6.35;4.07;;;;;;;2.74;100.00;96408.28;1021474;28;20271;-71
2022/01/02 02:11:16;;;;;;;6.57;4.40;;;;;;;2.78;100.00;96414.69;1013491;29;20264;-73
2022/01/02 02:11:47;;;;;;;7.40;4.38;;;;;;;2.77;100.00;96420.88;1015189;29;20599;-71
2022/01/02 02:12:17;;;;;;;6.75;4.30;;;;;;;2.78;100.00;96412.91;1016373;29;20394;-71
2022/01/02 02:12:48;;;;;;;9.07;4.47;;;;;;;2.77;100.00;96411.28;1019131;29;20028;-70
2022/01/02 02:13:18;;;;;;;9.45;4.45;;;;;;;2.78;100.00;96404.31;1014933;29;20116;-71
2022/01/02 02:13:49;;;;;;;7.38;4.10;;;;;;;2.68;100.00;96396.13;1015082;29;20024;-73
2022/01/02 02:14:19;;;;;;;6.88;4.28;;;;;;;2.73;100.00;96404.13;1008187;29;20480;-73
2022/01/02 02:14:50;;;;;;;6.63;4.32;;;;;;;2.77;100.00;96407.91;1011260;29;20024;-73
2022/01/02 02:15:20;;;;;;;5.20;3.80;;;;;;;2.67;100.00;96397.91;1015076;29;20012;-71
2022/01/02 02:15:51;;;;;;;6.50;3.95;;;;;;;2.67;100.00;96391.94;1015357;29;20051;-71
2022/01/02 02:16:22;;;;;;;6.95;4.22;;;;;;;2.75;100.00;96396.94;1011257;29;20020;-72
2022/01/02 02:16:52;;;;;;;5.93;4.35;;;;;;;2.69;100.00;96398.53;1011268;29;20052;-71
2022/01/02 02:17:23;;;;;;;5.88;4.03;;;;;;;2.72;100.00;96405.13;1015024;29;20654;-72
2022/01/02 02:17:53;;;;;;;5.38;3.90;;;;;;;2.64;100.00;96395.72;1015004;29;20016;-72
2022/01/02 02:18:24;;;;;;;6.05;4.18;;;;;;;2.71;100.00;96412.06;1019011;29;20015;-73
2022/01/02 02:18:54;;;;;;;5.65;3.83;;;;;;;2.72;100.00;96411.09;1014945;29;20510;-71
2022/01/02 02:19:25;;;;;;;5.63;3.67;;;;;;;2.71;100.00;96413.88;1011015;29;20032;-71
2022/01/02 02:19:57;;;;;;;7.78;4.47;;;;;;;2.71;100.00;96411.28;1018837;29;20023;-71
2022/01/02 02:20:32;;;;;;;8.57;4.88;;;;;;;2.70;100.00;96414.88;1018838;29;20028;-72
2022/01/02 02:21:02;;;;;;;6.43;4.22;;;;;;;2.73;100.00;96420.47;1022725;28;20354;-72
2022/01/02 02:21:36;;;;;;;6.15;4.13;;;;;;;2.72;100.00;96418.06;1022883;29;20275;-72
2022/01/02 02:22:07;;;;;;;7.43;3.92;;;;;;;2.65;100.00;96396.50;1016003;29;20032;-71
2022/01/02 02:22:42;;;;;;;5.40;3.70;;;;;;;2.74;100.00;96419.44;1017667;29;20267;-72
2022/01/02 02:23:13;;;;;;;6.97;3.83;;;;;;;2.66;100.00;96405.91;1018822;29;20051;-73
2022/01/02 02:23:44;;;;;;;5.38;3.88;;;;;;;2.71;100.00;96408.69;1018347;29;20781;-73
2022/01/02 02:24:14;;;;;;;7.68;4.28;;;;;;;2.71;100.00;96411.28;1018639;29;20034;-71
2022/01/02 02:24:45;;;;;;;5.90;3.92;;;;;;;2.69;100.00;96397.75;1018928;29;20107;-75
2022/01/02 02:25:17;;;;;;;5.45;3.88;;;;;;;2.61;100.00;96380.56;1022808;29;20034;-72
2022/01/02 02:25:47;;;;;;;5.13;3.30;;;;;;;2.75;100.00;96415.88;1018827;29;20509;-73
2022/01/02 02:26:17;;;;;;;5.40;3.72;;;;;;;2.73;100.00;96415.28;1022753;28;20271;-72
2022/01/02 02:26:48;;;;;;;6.80;3.72;;;;;;;2.76;100.00;96409.72;1026861;28;20034;-74
2022/01/02 02:27:24;;;;;;;5.78;3.95;;;;;;;2.74;100.00;96409.09;1023154;28;20035;-73
2022/01/02 02:27:56;;;;;;;6.68;4.43;;;;;;;2.74;100.00;96408.28;1016386;29;20111;-72
2022/01/02 02:28:27;;;;;;;5.43;3.67;;;;;;;2.70;100.00;96414.88;1015457;29;20272;-72
2022/01/02 02:28:57;;;;;;;7.80;3.97;;;;;;;2.76;100.00;96412.28;1015705;29;20261;-71
2022/01/02 02:29:28;;;;;;;5.07;3.65;;;;;;;2.75;100.00;96405.53;1015548;29;20032;-72
2022/01/02 02:29:58;;;;;;;6.57;4.03;;;;;;;2.73;100.00;96414.47;1015437;29;20104;-70
2022/01/02 02:30:30;;;;;;;6.10;3.65;;;;;;;2.70;100.00;96404.50;1015372;29;20024;-71
2022/01/02 02:31:01;;;;;;;6.57;3.60;;;;;;;2.70;100.00;96409.69;1015748;29;20134;-72
2022/01/02 02:31:31;;;;;;;8.30;3.83;;;;;;;2.66;100.00;96409.28;1015613;29;20414;-71
2022/01/02 02:32:02;;;;;;;5.60;3.63;;;;;;;2.67;100.00;96407.50;1016066;29;20024;-72
2022/01/02 02:32:32;;;;;;;5.60;3.90;;;;;;;2.71;100.00;96412.06;1019683;29;20048;-72
2022/01/02 02:33:03;;;;;;;5.88;3.60;;;;;;;2.65;100.00;96401.69;1022902;28;20481;-73
2022/01/02 02:33:34;;;;;;;6.38;3.95;;;;;;;2.62;100.00;96402.91;1023641;29;20023;-72
2022/01/02 02:34:04;;;;;;;7.90;3.58;;;;;;;2.66;100.00;96395.53;1015669;29;20264;-70
2022/01/02 02:34:35;;;;;;;6.03;3.90;;;;;;;2.69;100.00;96405.50;1015519;29;20024;-71